Time;durP1;ratioP1;P1;durP2;ratioP2;P2;SDS_P1;SDS_P2;PMS_P1;PMS_P2;Temp;Humidity;BMP_temperature;BMP_pressure;BME280_temperature;BME280_humidity;BME280_pressure;Samples;Min_cycle;Max_cycle;Signal;HPM_P1;HPM_P2
2022/03/10 00:00:46;;;;;;;25.30;12.23;;;;;;;;;;6264724;28;20384;-67
2022/03/10 00:03:46;;;;;;;23.13;11.05;;;;;;;;;;6253762;28;20036;-67
2022/03/10 00:06:46;;;;;;;21.02;12.57;;;;;;;;;;6246529;28;20029;-67
2022/03/10 00:09:47;;;;;;;22.13;11.10;;;;;;;;;;6246175;28;20021;-67
2022/03/10 00:12:48;;;;;;;30.73;14.02;;;;;;;;;;6262817;28;20467;-67
2022/03/10 00:15:49;;;;;;;26.30;12.82;;;;;;;;;;6246272;28;20014;-67
2022/03/10 00:18:49;;;;;;;29.88;12.55;;;;;;;;;;6253415;28;20028;-67
2022/03/10 00:21:50;;;;;;;27.98;13.27;;;;;;;;;;6270750;28;20027;-67
2022/03/10 00:24:50;;;;;;;29.77;14.73;;;;;;;;;;6270993;28;20503;-67
2022/03/10 00:27:51;;;;;;;24.23;12.02;;;;;;;;;;6256699;28;20032;-67
2022/03/10 00:30:51;;;;;;;22.17;11.63;;;;;;;;;;6255436;28;20017;-67
2022/03/10 00:33:51;;;;;;;25.13;12.57;;;;;;;;;;6271278;28;20052;-67
2022/03/10 00:36:52;;;;;;;23.27;11.50;;;;;;;;;;6258892;28;20039;-67
2022/03/10 00:39:52;;;;;;;22.95;10.25;;;;;;;;;;6266871;28;20476;-68
2022/03/10 00:42:52;;;;;;;25.17;11.10;;;;;;;;;;6250719;28;20036;-68
2022/03/10 00:45:52;;;;;;;21.35;9.90;;;;;;;;;;6244386;28;20033;-68
2022/03/10 00:48:53;;;;;;;21.88;10.77;;;;;;;;;;6267778;28;20064;-68
2022/03/10 00:51:53;;;;;;;24.73;11.18;;;;;;;;;;6263977;28;20025;-68
2022/03/10 00:54:53;;;;;;;21.80;8.60;;;;;;;;;;6268755;28;20027;-68
2022/03/10 00:57:54;;;;;;;19.73;10.77;;;;;;;;;;6263304;28;20028;-67
2022/03/10 01:00:54;;;;;;;23.45;10.90;;;;;;;;;;6267716;28;20423;-67
2022/03/10 01:03:54;;;;;;;18.58;9.73;;;;;;;;;;6257742;28;20100;-67
2022/03/10 01:06:54;;;;;;;22.23;9.75;;;;;;;;;;6265853;28;20033;-68
2022/03/10 01:09:55;;;;;;;24.55;9.90;;;;;;;;;;6244814;28;20493;-68
2022/03/10 01:12:55;;;;;;;16.30;8.20;;;;;;;;;;6267357;28;20021;-68
2022/03/10 01:15:55;;;;;;;18.58;9.15;;;;;;;;;;6260620;28;20272;-68
2022/03/10 01:18:56;;;;;;;23.00;10.27;;;;;;;;;;6246194;28;20025;-68
2022/03/10 01:21:56;;;;;;;19.00;10.02;;;;;;;;;;6267594;28;20025;-67
2022/03/10 01:24:57;;;;;;;19.88;10.20;;;;;;;;;;6265655;28;20085;-67
2022/03/10 01:27:57;;;;;;;26.05;9.23;;;;;;;;;;6254856;28;20021;-67
2022/03/10 01:30:57;;;;;;;21.50;10.68;;;;;;;;;;6253604;28;20029;-67
2022/03/10 01:33:59;;;;;;;23.80;11.13;;;;;;;;;;6263455;28;20440;-67
2022/03/10 01:36:59;;;;;;;22.05;10.48;;;;;;;;;;6259036;28;20009;-67
2022/03/10 01:40:00;;;;;;;26.40;11.73;;;;;;;;;;6248180;28;20020;-67
2022/03/10 01:43:00;;;;;;;22.63;10.45;;;;;;;;;;6246260;28;20009;-67
2022/03/10 01:46:02;;;;;;;23.80;11.40;;;;;;;;;;6263785;28;20411;-68
2022/03/10 01:49:03;;;;;;;24.40;10.57;;;;;;;;;;6265790;28;20025;-68
2022/03/10 01:52:03;;;;;;;19.07;9.73;;;;;;;;;;6252845;28;20029;-68
2022/03/10 01:55:04;;;;;;;24.98;10.18;;;;;;;;;;6253830;28;20494;-68
2022/03/10 01:58:05;;;;;;;24.50;9.38;;;;;;;;;;6256695;28;20032;-68
2022/03/10 02:01:07;;;;;;;14.60;7.22;;;;;;;;;;6253845;28;20436;-67
2022/03/10 02:04:07;;;;;;;21.08;9.02;;;;;;;;;;6257038;28;20077;-67
2022/03/10 02:10:31;;;;;;;14.50;6.78;;;;;;;;;;6271600;28;20040;-68
2022/03/10 02:13:32;;;;;;;20.05;8.15;;;;;;;;;;6249380;28;20024;-68
2022/03/10 02:19:52;;;;;;;14.23;5.85;;;;;;;;;;6253508;28;20029;-68
2022/03/10 02:22:53;;;;;;;15.45;6.80;;;;;;;;;;6263710;28;20036;-68
2022/03/10 02:25:55;;;;;;;10.57;5.40;;;;;;;;;;6267864;28;20025;-67
2022/03/10 02:28:56;;;;;;;8.32;3.55;;;;;;;;;;6244714;28;20084;-67
2022/03/10 02:31:56;;;;;;;10.57;4.93;;;;;;;;;;6260727;28;20484;-67
2022/03/10 02:34:56;;;;;;;8.27;4.82;;;;;;;;;;6267554;28;20048;-67
2022/03/10 02:37:57;;;;;;;14.07;5.65;;;;;;;;;;6262836;28;20632;-67
2022/03/10 02:40:57;;;;;;;13.45;6.03;;;;;;;;;;6267475;28;20459;-67
2022/03/10 02:43:57;;;;;;;11.18;5.60;;;;;;;;;;6263336;28;20030;-67
2022/03/10 02:46:58;;;;;;;9.48;5.13;;;;;;;;;;6254903;28;20108;-67
2022/03/10 02:49:58;;;;;;;9.80;5.80;;;;;;;;;;6243331;28;20496;-67
2022/03/10 02:52:59;;;;;;;12.73;5.65;;;;;;;;;;6265539;28;20417;-68
2022/03/10 02:55:59;;;;;;;11.45;4.97;;;;;;;;;;6264902;28;20021;-68
2022/03/10 02:58:59;;;;;;;15.10;7.15;;;;;;;;;;6262581;28;20021;-67
2022/03/10 03:02:00;;;;;;;16.52;7.35;;;;;;;;;;6265172;28;20366;-67
2022/03/10 03:05:01;;;;;;;9.88;5.05;;;;;;;;;;6267333;28;20017;-68
2022/03/10 03:08:01;;;;;;;14.77;7.30;;;;;;;;;;6267425;28;20029;-68
2022/03/10 03:11:01;;;;;;;14.68;6.95;;;;;;;;;;6262519;28;20110;-68
2022/03/10 03:14:02;;;;;;;15.15;7.00;;;;;;;;;;6258679;28;20046;-68
2022/03/10 03:17:02;;;;;;;13.35;6.35;;;;;;;;;;6258683;28;20029;-68
2022/03/10 03:20:04;;;;;;;13.30;7.10;;;;;;;;;;6242725;28;20025;-68
2022/03/10 03:23:05;;;;;;;15.63;7.63;;;;;;;;;;6242299;28;20092;-68
2022/03/10 03:26:05;;;;;;;17.63;9.00;;;;;;;;;;6252231;28;20383;-68
2022/03/10 03:29:05;;;;;;;17.20;7.97;;;;;;;;;;6242690;28;20108;-68
2022/03/10 03:32:06;;;;;;;21.52;8.07;;;;;;;;;;6261296;28;20060;-68
2022/03/10 03:35:06;;;;;;;19.15;8.90;;;;;;;;;;6265672;28;20051;-68
2022/03/10 03:38:06;;;;;;;16.48;6.95;;;;;;;;;;6248939;28;20411;-67
2022/03/10 03:41:07;;;;;;;14.38;7.60;;;;;;;;;;6269511;28;20545;-67
2022/03/10 03:44:08;;;;;;;15.73;7.70;;;;;;;;;;6267563;28;20024;-68
2022/03/10 03:47:08;;;;;;;13.20;6.57;;;;;;;;;;6247967;28;20116;-68
2022/03/10 03:50:09;;;;;;;15.15;7.60;;;;;;;;;;6246622;28;20082;-67
2022/03/10 03:53:09;;;;;;;12.95;6.38;;;;;;;;;;6246584;28;20068;-68
2022/03/10 03:56:09;;;;;;;9.68;5.13;;;;;;;;;;6259639;28;20022;-68
2022/03/10 03:59:10;;;;;;;14.32;6.32;;;;;;;;;;6253573;28;20014;-68
2022/03/10 04:02:10;;;;;;;10.05;4.85;;;;;;;;;;6266257;28;20013;-67
2022/03/10 04:05:10;;;;;;;14.40;6.53;;;;;;;;;;6271166;28;20016;-67
2022/03/10 04:08:11;;;;;;;11.68;5.85;;;;;;;;;;6270890;28;20052;-67
2022/03/10 04:11:12;;;;;;;10.85;5.18;;;;;;;;;;6266395;28;20063;-67
2022/03/10 04:14:12;;;;;;;9.48;4.75;;;;;;;;;;6265545;28;20013;-67
2022/03/10 04:17:13;;;;;;;11.77;5.45;;;;;;;;;;6247904;28;20020;-67
2022/03/10 04:20:13;;;;;;;7.07;4.68;;;;;;;;;;6245849;28;20083;-67
2022/03/10 04:23:14;;;;;;;11.50;5.57;;;;;;;;;;6251536;28;20100;-67
2022/03/10 04:26:14;;;;;;;10.82;4.65;;;;;;;;;;6269675;28;20100;-67
2022/03/10 04:29:14;;;;;;;13.35;6.05;;;;;;;;;;6245664;28;20045;-67
2022/03/10 04:32:15;;;;;;;12.73;6.05;;;;;;;;;;6264519;28;20029;-67
2022/03/10 04:35:17;;;;;;;12.80;5.88;;;;;;;;;;6270249;28;20071;-66
2022/03/10 04:38:18;;;;;;;10.90;6.15;;;;;;;;;;6266312;28;20021;-66
2022/03/10 04:41:18;;;;;;;10.77;4.75;;;;;;;;;;6269358;28;20426;-66
2022/03/10 04:44:19;;;;;;;14.27;5.40;;;;;;;;;;6269589;28;20047;-66
2022/03/10 04:47:19;;;;;;;14.70;6.07;;;;;;;;;;6269964;28;20108;-66
2022/03/10 04:50:19;;;;;;;14.38;5.53;;;;;;;;;;6269066;28;20056;-66
2022/03/10 04:53:20;;;;;;;13.80;5.38;;;;;;;;;;6269629;28;20452;-66
2022/03/10 04:56:20;;;;;;;12.32;7.15;;;;;;;;;;6264180;28;20089;-65
2022/03/10 04:59:20;;;;;;;10.90;4.57;;;;;;;;;;6244925;28;20021;-65
2022/03/10 05:02:21;;;;;;;12.93;5.13;;;;;;;;;;6265794;28;20020;-65
2022/03/10 05:05:21;;;;;;;13.20;6.63;;;;;;;;;;6268114;28;20447;-65
2022/03/10 05:08:21;;;;;;;16.42;7.47;;;;;;;;;;6268937;28;20373;-65
2022/03/10 05:11:21;;;;;;;17.33;7.45;;;;;;;;;;6257559;28;20056;-65
2022/03/10 05:14:22;;;;;;;17.90;6.93;;;;;;;;;;6246394;28;20397;-65
2022/03/10 05:17:23;;;;;;;15.20;7.53;;;;;;;;;;6267055;28;20451;-65
2022/03/10 05:20:26;;;;;;;9.88;5.07;;;;;;;;;;6251847;28;20361;-67
2022/03/10 05:23:27;;;;;;;12.45;6.25;;;;;;;;;;6266855;28;20075;-66
2022/03/10 05:26:27;;;;;;;14.43;5.55;;;;;;;;;;6263430;28;20021;-66
2022/03/10 05:29:27;;;;;;;15.32;5.90;;;;;;;;;;6269042;28;20027;-66
2022/03/10 05:32:28;;;;;;;12.07;5.63;;;;;;;;;;6261014;28;20080;-66
2022/03/10 05:35:29;;;;;;;14.50;6.72;;;;;;;;;;6243856;28;20021;-66
2022/03/10 05:38:29;;;;;;;14.57;5.83;;;;;;;;;;6255711;28;20511;-66
2022/03/10 05:41:30;;;;;;;13.43;6.55;;;;;;;;;;6254973;28;20021;-66
2022/03/10 05:44:30;;;;;;;14.32;7.05;;;;;;;;;;6255298;28;20464;-66
2022/03/10 05:47:31;;;;;;;14.57;6.97;;;;;;;;;;6255689;28;20104;-66
2022/03/10 05:50:31;;;;;;;11.70;6.00;;;;;;;;;;6268373;28;20469;-66
2022/03/10 05:53:31;;;;;;;14.52;6.70;;;;;;;;;;6264612;28;20076;-66
2022/03/10 05:56:31;;;;;;;10.50;5.30;;;;;;;;;;6255716;28;20109;-66
2022/03/10 05:59:32;;;;;;;8.95;5.18;;;;;;;;;;6256549;28;20539;-66
2022/03/10 06:02:32;;;;;;;15.05;6.70;;;;;;;;;;6253761;28;20026;-66
2022/03/10 06:05:33;;;;;;;10.63;5.95;;;;;;;;;;6266219;28;20075;-66
2022/03/10 06:08:33;;;;;;;13.40;7.07;;;;;;;;;;6259155;28;20025;-66
2022/03/10 06:11:33;;;;;;;15.80;5.35;;;;;;;;;;6251043;28;20041;-65
2022/03/10 06:14:33;;;;;;;11.52;5.85;;;;;;;;;;6263517;28;20016;-65
2022/03/10 06:17:34;;;;;;;12.77;4.88;;;;;;;;;;6249302;28;20029;-65
2022/03/10 06:20:34;;;;;;;11.65;6.05;;;;;;;;;;6246919;28;20052;-66
2022/03/10 06:23:34;;;;;;;12.75;6.65;;;;;;;;;;6264219;28;20562;-66
2022/03/10 06:26:36;;;;;;;14.30;5.75;;;;;;;;;;6269323;28;20036;-66
2022/03/10 06:29:40;;;;;;;10.55;4.95;;;;;;;;;;6243375;28;20043;-66
2022/03/10 06:32:40;;;;;;;11.32;6.72;;;;;;;;;;6262870;28;20036;-66
2022/03/10 06:35:41;;;;;;;14.80;6.20;;;;;;;;;;6260067;28;20029;-66
2022/03/10 06:38:41;;;;;;;11.07;5.93;;;;;;;;;;6245461;28;20037;-66
2022/03/10 06:41:41;;;;;;;11.13;5.60;;;;;;;;;;6249040;28;20033;-66
2022/03/10 06:44:41;;;;;;;13.35;5.93;;;;;;;;;;6257756;28;20079;-67
2022/03/10 06:47:42;;;;;;;12.68;6.82;;;;;;;;;;6266857;28;20222;-67
2022/03/10 06:50:42;;;;;;;12.10;7.15;;;;;;;;;;6251013;28;20036;-67
2022/03/10 06:53:42;;;;;;;19.23;8.05;;;;;;;;;;6249876;28;20017;-67
2022/03/10 06:56:43;;;;;;;16.85;6.50;;;;;;;;;;6255253;28;20079;-67
2022/03/10 06:59:44;;;;;;;16.52;7.47;;;;;;;;;;6253656;28;20030;-66
2022/03/10 07:02:44;;;;;;;16.00;6.80;;;;;;;;;;6252911;28;20029;-66
2022/03/10 07:05:44;;;;;;;10.52;6.45;;;;;;;;;;6251233;28;20568;-66
2022/03/10 07:08:44;;;;;;;15.30;7.63;;;;;;;;;;6252761;28;20563;-67
2022/03/10 07:11:45;;;;;;;13.57;8.07;;;;;;;;;;6248523;28;20412;-67
2022/03/10 07:14:45;;;;;;;12.48;5.57;;;;;;;;;;6252922;28;20053;-67
2022/03/10 07:17:45;;;;;;;16.05;7.22;;;;;;;;;;6252737;28;20028;-67
2022/03/10 07:20:47;;;;;;;9.60;5.82;;;;;;;;;;6253329;28;20240;-67
2022/03/10 07:23:47;;;;;;;12.30;6.17;;;;;;;;;;6255289;28;20112;-67
2022/03/10 07:26:47;;;;;;;13.23;6.10;;;;;;;;;;6249011;28;20056;-67
2022/03/10 07:29:48;;;;;;;8.73;4.82;;;;;;;;;;6257038;28;20025;-67
2022/03/10 07:32:48;;;;;;;18.63;8.95;;;;;;;;;;6266932;28;20384;-67
2022/03/10 07:35:48;;;;;;;19.30;7.82;;;;;;;;;;6253880;28;20024;-67
2022/03/10 07:38:49;;;;;;;22.02;6.18;;;;;;;;;;6248872;28;20477;-67
2022/03/10 07:41:49;;;;;;;13.27;5.55;;;;;;;;;;6261460;28;20025;-67
2022/03/10 07:44:49;;;;;;;11.05;5.93;;;;;;;;;;6260248;28;20151;-67
2022/03/10 07:47:50;;;;;;;12.60;6.93;;;;;;;;;;6260801;28;20511;-67
2022/03/10 07:50:50;;;;;;;11.38;6.72;;;;;;;;;;6254805;28;20098;-67
2022/03/10 07:53:50;;;;;;;12.93;5.78;;;;;;;;;;6254847;28;20488;-67
2022/03/10 07:56:50;;;;;;;12.02;5.85;;;;;;;;;;6255437;28;20113;-67
2022/03/10 07:59:52;;;;;;;9.77;5.43;;;;;;;;;;6257351;28;20025;-67
2022/03/10 08:02:52;;;;;;;8.60;4.20;;;;;;;;;;6267753;28;20025;-67
2022/03/10 08:05:52;;;;;;;10.98;5.45;;;;;;;;;;6254349;28;20047;-67
2022/03/10 08:08:53;;;;;;;10.13;4.97;;;;;;;;;;6256727;28;20467;-67
2022/03/10 08:11:53;;;;;;;10.52;4.57;;;;;;;;;;6250495;28;20041;-67
2022/03/10 08:14:53;;;;;;;10.13;4.47;;;;;;;;;;6260518;28;20114;-67
2022/03/10 08:17:54;;;;;;;8.88;4.30;;;;;;;;;;6258744;28;20017;-67
2022/03/10 08:20:55;;;;;;;6.13;3.85;;;;;;;;;;6251800;28;20827;-67
2022/03/10 08:23:56;;;;;;;15.82;8.35;;;;;;;;;;6266694;28;20025;-67
2022/03/10 08:26:58;;;;;;;16.08;8.02;;;;;;;;;;6255328;28;20555;-67
2022/03/10 08:29:58;;;;;;;;;;;;;;;;;;6246990;28;20041;-67
2022/03/10 08:32:58;;;;;;;9.50;4.23;;;;;;;;;;6255461;28;19909;-67
2022/03/10 08:35:59;;;;;;;8.90;4.47;;;;;;;;;;6256288;28;20360;-67
2022/03/10 08:38:59;;;;;;;12.32;6.03;;;;;;;;;;6249008;28;20025;-67
2022/03/10 08:41:59;;;;;;;12.70;4.68;;;;;;;;;;6244698;28;20054;-67
2022/03/10 08:45:00;;;;;;;6.43;3.45;;;;;;;;;;6250166;28;20761;-67
2022/03/10 08:48:00;;;;;;;6.88;3.80;;;;;;;;;;6248371;28;20920;-67
2022/03/10 08:51:04;;;;;;;13.05;4.07;;;;;;;;;;6249846;28;20032;-67
2022/03/10 08:54:04;;;;;;;7.50;3.65;;;;;;;;;;6245888;28;20444;-67
2022/03/10 08:57:05;;;;;;;9.38;4.00;;;;;;;;;;6246850;28;20109;-67
2022/03/10 09:00:05;;;;;;;6.53;3.40;;;;;;;;;;6254723;28;20018;-67
2022/03/10 09:03:06;;;;;;;9.00;4.20;;;;;;;;;;6249579;28;20775;-67
2022/03/10 09:06:07;;;;;;;8.25;3.75;;;;;;;;;;6241711;28;20021;-67
2022/03/10 09:09:07;;;;;;;9.73;3.75;;;;;;;;;;6251089;28;20068;-67
2022/03/10 09:12:07;;;;;;;10.00;4.28;;;;;;;;;;6251877;28;20073;-67
2022/03/10 09:15:08;;;;;;;5.82;3.13;;;;;;;;;;6261655;28;20511;-67
2022/03/10 09:18:09;;;;;;;7.88;4.40;;;;;;;;;;6258394;28;20208;-67
2022/03/10 09:21:09;;;;;;;9.05;5.43;;;;;;;;;;6264017;28;20025;-67
2022/03/10 09:24:10;;;;;;;7.75;3.22;;;;;;;;;;6260633;28;20116;-67
2022/03/10 09:27:10;;;;;;;10.63;4.50;;;;;;;;;;6262042;28;20028;-67
2022/03/10 09:30:12;;;;;;;6.32;3.72;;;;;;;;;;6253113;28;20348;-67
2022/03/10 09:33:12;;;;;;;5.82;3.53;;;;;;;;;;6255523;28;20071;-67
2022/03/10 09:36:14;;;;;;;7.32;5.03;;;;;;;;;;6251830;28;20025;-67
2022/03/10 09:39:17;;;;;;;9.23;5.60;;;;;;;;;;6239904;28;20080;-67
2022/03/10 09:42:18;;;;;;;8.90;4.95;;;;;;;;;;6255529;28;20059;-67
2022/03/10 09:45:18;;;;;;;7.50;3.53;;;;;;;;;;6263347;28;20025;-67
2022/03/10 09:48:19;;;;;;;7.85;4.82;;;;;;;;;;6259974;28;20437;-67
2022/03/10 09:51:21;;;;;;;10.43;4.78;;;;;;;;;;6248473;28;20029;-67
2022/03/10 09:54:21;;;;;;;17.58;4.78;;;;;;;;;;6250755;28;20033;-67
2022/03/10 09:57:22;;;;;;;8.40;4.18;;;;;;;;;;6247649;28;20076;-67
2022/03/10 10:00:22;;;;;;;8.18;4.40;;;;;;;;;;6247462;28;20028;-67
2022/03/10 10:03:22;;;;;;;8.63;4.03;;;;;;;;;;6261022;28;20028;-67
2022/03/10 10:06:23;;;;;;;10.68;3.95;;;;;;;;;;6246994;28;20021;-67
2022/03/10 10:09:23;;;;;;;8.10;3.83;;;;;;;;;;6253802;28;20017;-67
2022/03/10 10:12:24;;;;;;;7.18;3.90;;;;;;;;;;6251222;28;20087;-67
2022/03/10 10:15:31;;;;;;;8.05;4.53;;;;;;;;;;6246911;28;20057;-67
2022/03/10 10:18:32;;;;;;;6.28;4.47;;;;;;;;;;6248823;28;20028;-67
2022/03/10 10:21:32;;;;;;;8.48;4.07;;;;;;;;;;6252799;28;20429;-67
2022/03/10 10:24:35;;;;;;;7.35;3.72;;;;;;;;;;6261139;28;20024;-67
2022/03/10 10:27:37;;;;;;;6.85;3.85;;;;;;;;;;6256482;28;20017;-67
2022/03/10 10:30:51;;;;;;;10.18;4.93;;;;;;;;;;6250743;28;20032;-67
2022/03/10 10:34:08;;;;;;;10.07;4.45;;;;;;;;;;6258349;28;20044;-67
2022/03/10 10:37:20;;;;;;;8.38;4.57;;;;;;;;;;6241967;28;20021;-67
2022/03/10 10:40:22;;;;;;;8.23;4.30;;;;;;;;;;6247896;28;20025;-67
2022/03/10 10:43:22;;;;;;;9.55;4.18;;;;;;;;;;6244508;28;20032;-68
2022/03/10 10:46:36;;;;;;;10.88;4.43;;;;;;;;;;6241664;28;20231;-67
2022/03/10 10:49:36;;;;;;;9.13;4.43;;;;;;;;;;6243110;28;20028;-67
2022/03/10 10:52:40;;;;;;;7.50;4.00;;;;;;;;;;6248425;28;20061;-67
2022/03/10 10:55:45;;;;;;;11.35;4.47;;;;;;;;;;6248704;28;20032;-67
2022/03/10 10:58:46;;;;;;;8.93;4.45;;;;;;;;;;6261930;28;20017;-67
2022/03/10 11:01:46;;;;;;;9.60;4.05;;;;;;;;;;6246711;28;20018;-67
2022/03/10 11:04:47;;;;;;;8.82;4.18;;;;;;;;;;6248054;28;20032;-67
2022/03/10 11:07:48;;;;;;;9.77;5.63;;;;;;;;;;6249084;28;20017;-67
2022/03/10 11:10:48;;;;;;;9.85;4.90;;;;;;;;;;6247729;28;20048;-67
2022/03/10 11:13:49;;;;;;;7.13;4.15;;;;;;;;;;6247614;28;20036;-67
2022/03/10 11:16:49;;;;;;;8.27;4.28;;;;;;;;;;6245282;28;20087;-67
2022/03/10 11:19:53;;;;;;;7.95;3.58;;;;;;;;;;6245683;28;20022;-67
2022/03/10 11:23:14;;;;;;;8.23;3.58;;;;;;;;;;6245671;28;20363;-67
2022/03/10 11:26:20;;;;;;;8.20;4.03;;;;;;;;;;6245734;28;20021;-67
2022/03/10 11:29:26;;;;;;;7.45;3.40;;;;;;;;;;6255736;28;20029;-67
2022/03/10 11:32:30;;;;;;;11.23;4.03;;;;;;;;;;6258433;28;20017;-67
2022/03/10 11:35:31;;;;;;;8.10;4.30;;;;;;;;;;6271793;28;20223;-67
2022/03/10 11:38:51;;;;;;;8.45;4.60;;;;;;;;;;6250462;28;20476;-67
2022/03/10 11:41:53;;;;;;;8.07;4.53;;;;;;;;;;6245415;28;20075;-67
2022/03/10 11:44:53;;;;;;;;;;;;;;;;;;6252708;28;20017;-67
2022/03/10 11:47:53;;;;;;;8.45;5.20;;;;;;;;;;6252463;28;19974;-67
2022/03/10 11:50:55;;;;;;;8.18;3.50;;;;;;;;;;6257020;28;20037;-67
2022/03/10 11:53:56;;;;;;;5.80;3.37;;;;;;;;;;6254607;28;20013;-67
2022/03/10 11:57:03;;;;;;;9.73;4.40;;;;;;;;;;6256792;28;20289;-67
2022/03/10 12:00:03;;;;;;;5.05;3.95;;;;;;;;;;6255996;28;20025;-67
2022/03/10 12:03:04;;;;;;;11.30;5.05;;;;;;;;;;6253489;28;20025;-67
2022/03/10 12:06:05;;;;;;;7.20;3.65;;;;;;;;;;6260638;28;20024;-67
2022/03/10 12:09:06;;;;;;;9.30;3.80;;;;;;;;;;6258355;28;20022;-67
2022/03/10 12:12:12;;;;;;;7.57;4.30;;;;;;;;;;6250270;28;20037;-67
2022/03/10 12:15:28;;;;;;;7.90;4.35;;;;;;;;;;6256975;28;20048;-67
2022/03/10 12:18:29;;;;;;;7.00;3.80;;;;;;;;;;6270881;28;20017;-67
2022/03/10 12:21:30;;;;;;;7.23;4.00;;;;;;;;;;6258224;28;20021;-67
2022/03/10 12:24:34;;;;;;;8.88;4.22;;;;;;;;;;6245445;28;20268;-67
2022/03/10 12:27:46;;;;;;;9.73;4.03;;;;;;;;;;6256247;28;20014;-67
2022/03/10 12:30:47;;;;;;;9.52;4.88;;;;;;;;;;6254272;28;20134;-67
2022/03/10 12:33:52;;;;;;;8.45;4.13;;;;;;;;;;6269619;28;20024;-67
2022/03/10 12:36:54;;;;;;;8.38;4.80;;;;;;;;;;6260991;28;20016;-67
2022/03/10 12:39:54;;;;;;;10.52;4.13;;;;;;;;;;6255990;28;20041;-67
2022/03/10 12:43:01;;;;;;;7.28;3.80;;;;;;;;;;6257497;28;20448;-67
2022/03/10 12:46:03;;;;;;;6.63;3.83;;;;;;;;;;6253434;28;20445;-67
2022/03/10 12:49:04;;;;;;;9.07;4.38;;;;;;;;;;6256217;28;20032;-67
2022/03/10 12:52:11;;;;;;;6.32;2.85;;;;;;;;;;6257939;28;20013;-67
2022/03/10 12:55:12;;;;;;;6.75;3.72;;;;;;;;;;6254510;28;20430;-67
2022/03/10 12:58:12;;;;;;;6.20;3.50;;;;;;;;;;6257726;28;20023;-67
2022/03/10 13:01:13;;;;;;;7.88;3.55;;;;;;;;;;6253186;28;20047;-67
2022/03/10 13:04:13;;;;;;;7.05;3.67;;;;;;;;;;6255682;28;20449;-67
2022/03/10 13:07:16;;;;;;;7.00;3.83;;;;;;;;;;6259330;28;20102;-67
2022/03/10 13:10:17;;;;;;;10.18;4.05;;;;;;;;;;6250266;28;20416;-67
2022/03/10 13:13:27;;;;;;;8.43;4.10;;;;;;;;;;6247077;28;20049;-67
2022/03/10 13:16:31;;;;;;;10.93;4.20;;;;;;;;;;6246362;28;20029;-67
2022/03/10 13:19:36;;;;;;;9.07;3.83;;;;;;;;;;6242588;28;20024;-67
2022/03/10 13:22:37;;;;;;;6.18;3.55;;;;;;;;;;6251130;28;20451;-67
2022/03/10 13:25:38;;;;;;;10.30;4.38;;;;;;;;;;6245491;28;20039;-67
2022/03/10 13:28:38;;;;;;;6.57;3.50;;;;;;;;;;6243397;28;20024;-67
2022/03/10 13:31:38;;;;;;;7.78;3.72;;;;;;;;;;6251956;28;20025;-67
2022/03/10 13:34:40;;;;;;;16.00;5.90;;;;;;;;;;6249363;28;20097;-67
2022/03/10 13:37:41;;;;;;;8.32;4.57;;;;;;;;;;6256821;28;20018;-67
2022/03/10 13:40:42;;;;;;;7.70;3.60;;;;;;;;;;6251512;28;20090;-67
2022/03/10 13:43:42;;;;;;;9.82;4.18;;;;;;;;;;6266139;28;20051;-68
2022/03/10 13:46:42;;;;;;;8.63;3.65;;;;;;;;;;6264896;28;20024;-67
2022/03/10 13:49:46;;;;;;;8.82;4.10;;;;;;;;;;6253206;28;20021;-67
2022/03/10 13:52:49;;;;;;;9.50;5.20;;;;;;;;;;6260778;28;20473;-67
2022/03/10 13:55:50;;;;;;;9.35;4.45;;;;;;;;;;6244778;28;20559;-67
2022/03/10 13:58:51;;;;;;;12.63;5.63;;;;;;;;;;6246650;28;20025;-68
2022/03/10 14:01:51;;;;;;;9.52;4.38;;;;;;;;;;6264705;28;20496;-67
2022/03/10 14:04:55;;;;;;;8.15;3.83;;;;;;;;;;6255575;28;20017;-67
2022/03/10 14:08:11;;;;;;;7.25;3.22;;;;;;;;;;6250733;28;20108;-67
2022/03/10 14:11:12;;;;;;;9.68;5.40;;;;;;;;;;6242356;28;20504;-68
2022/03/10 14:14:12;;;;;;;8.27;3.53;;;;;;;;;;6243558;28;20017;-67
2022/03/10 14:17:12;;;;;;;7.07;3.55;;;;;;;;;;6247190;28;20542;-67
2022/03/10 14:20:13;;;;;;;8.45;3.58;;;;;;;;;;6262092;28;20413;-67
2022/03/10 14:23:14;;;;;;;9.25;3.88;;;;;;;;;;6267453;28;20044;-67
2022/03/10 14:26:15;;;;;;;9.10;4.15;;;;;;;;;;6259246;28;20020;-67
2022/03/10 14:29:15;;;;;;;8.85;4.75;;;;;;;;;;6255331;28;20017;-67
2022/03/10 14:32:16;;;;;;;12.38;6.22;;;;;;;;;;6256376;28;20016;-67
2022/03/10 14:35:16;;;;;;;12.70;5.03;;;;;;;;;;6264822;28;20086;-67
2022/03/10 14:38:16;;;;;;;8.02;4.15;;;;;;;;;;6246892;28;20112;-67
2022/03/10 14:41:19;;;;;;;9.25;3.90;;;;;;;;;;6243285;28;20032;-67
2022/03/10 14:44:20;;;;;;;9.25;3.60;;;;;;;;;;6251431;28;20032;-67
2022/03/10 14:47:20;;;;;;;9.60;4.83;;;;;;;;;;6252376;28;20574;-67
2022/03/10 14:50:21;;;;;;;8.63;4.20;;;;;;;;;;6251292;28;20017;-67
2022/03/10 14:53:21;;;;;;;6.47;3.10;;;;;;;;;;6254115;28;20013;-67
2022/03/10 14:56:21;;;;;;;7.20;4.15;;;;;;;;;;6252175;28;20416;-67
2022/03/10 14:59:22;;;;;;;8.38;4.38;;;;;;;;;;6253061;28;20017;-67
2022/03/10 15:02:22;;;;;;;11.13;5.13;;;;;;;;;;6252739;28;20112;-68
2022/03/10 15:05:22;;;;;;;10.40;4.95;;;;;;;;;;6250717;28;20229;-68
2022/03/10 15:08:23;;;;;;;12.75;6.00;;;;;;;;;;6252285;28;20091;-68
2022/03/10 15:11:23;;;;;;;16.77;8.15;;;;;;;;;;6250745;28;20041;-68
2022/03/10 15:14:24;;;;;;;10.00;4.38;;;;;;;;;;6249626;28;20037;-68
2022/03/10 15:17:24;;;;;;;8.02;3.83;;;;;;;;;;6243100;28;20021;-68
2022/03/10 15:20:24;;;;;;;9.80;5.22;;;;;;;;;;6249677;28;20013;-67
2022/03/10 15:23:25;;;;;;;10.05;4.05;;;;;;;;;;6258198;28;20021;-68
2022/03/10 15:26:25;;;;;;;15.05;7.07;;;;;;;;;;6245821;28;20079;-68
2022/03/10 15:29:28;;;;;;;12.15;5.53;;;;;;;;;;6248803;28;20017;-68
2022/03/10 15:32:28;;;;;;;19.00;9.45;;;;;;;;;;6248770;28;20028;-67
2022/03/10 15:35:28;;;;;;;20.25;9.63;;;;;;;;;;6244838;28;20025;-67
2022/03/10 15:38:29;;;;;;;11.90;5.55;;;;;;;;;;6257620;28;20010;-67
2022/03/10 15:41:29;;;;;;;11.25;4.50;;;;;;;;;;6253791;28;20400;-68
2022/03/10 15:44:30;;;;;;;8.73;4.47;;;;;;;;;;6256275;28;20051;-68
2022/03/10 15:47:30;;;;;;;9.30;4.88;;;;;;;;;;6257001;28;20033;-68
2022/03/10 15:50:31;;;;;;;7.63;4.13;;;;;;;;;;6269543;28;20456;-68
2022/03/10 15:53:34;;;;;;;8.02;4.28;;;;;;;;;;6251335;28;20279;-68
2022/03/10 15:56:34;;;;;;;8.95;3.95;;;;;;;;;;6249160;28;20029;-68
2022/03/10 15:59:38;;;;;;;15.77;6.22;;;;;;;;;;6259819;28;20036;-68
2022/03/10 16:02:40;;;;;;;11.70;5.80;;;;;;;;;;6255831;28;20405;-68
2022/03/10 16:05:40;;;;;;;9.02;5.07;;;;;;;;;;6258145;28;20539;-68
2022/03/10 16:08:41;;;;;;;13.57;5.00;;;;;;;;;;6258113;28;20029;-68
2022/03/10 16:11:41;;;;;;;13.80;6.80;;;;;;;;;;6255251;28;20374;-68
2022/03/10 16:14:41;;;;;;;12.32;5.43;;;;;;;;;;6249369;28;20040;-68
2022/03/10 16:17:41;;;;;;;11.20;5.22;;;;;;;;;;6248328;28;20025;-67
2022/03/10 16:20:42;;;;;;;7.78;4.07;;;;;;;;;;6249019;28;20036;-67
2022/03/10 16:23:42;;;;;;;7.32;4.00;;;;;;;;;;6256003;28;20028;-67
2022/03/10 16:26:42;;;;;;;11.88;5.55;;;;;;;;;;6259060;28;20071;-67
2022/03/10 16:29:43;;;;;;;10.20;4.47;;;;;;;;;;6251953;28;20033;-67
2022/03/10 16:32:45;;;;;;;11.52;5.15;;;;;;;;;;6253336;28;20025;-67
2022/03/10 16:35:45;;;;;;;13.70;4.65;;;;;;;;;;6252237;28;20025;-67
2022/03/10 16:38:45;;;;;;;12.77;5.72;;;;;;;;;;6252216;28;20027;-67
2022/03/10 16:41:46;;;;;;;16.73;6.60;;;;;;;;;;6256712;28;20040;-67
2022/03/10 16:44:47;;;;;;;13.65;6.32;;;;;;;;;;6255197;28;20491;-67
2022/03/10 16:47:48;;;;;;;19.08;7.50;;;;;;;;;;6253774;28;20067;-67
2022/03/10 16:50:50;;;;;;;13.70;5.40;;;;;;;;;;6250692;28;20389;-67
2022/03/10 16:53:50;;;;;;;14.65;7.05;;;;;;;;;;6251740;28;20112;-67
2022/03/10 16:56:50;;;;;;;11.02;5.72;;;;;;;;;;6255591;28;20460;-67
2022/03/10 16:59:51;;;;;;;12.43;6.00;;;;;;;;;;6251830;28;20024;-67
2022/03/10 17:02:51;;;;;;;14.90;7.35;;;;;;;;;;6247082;28;20055;-66
2022/03/10 17:05:51;;;;;;;20.40;7.45;;;;;;;;;;6257975;28;20029;-66
2022/03/10 17:08:52;;;;;;;20.17;7.55;;;;;;;;;;6249781;28;20104;-66
2022/03/10 17:11:52;;;;;;;18.10;8.27;;;;;;;;;;6262320;28;20045;-66
2022/03/10 17:14:52;;;;;;;19.02;8.73;;;;;;;;;;6247250;28;20029;-65
2022/03/10 17:17:53;;;;;;;21.80;8.98;;;;;;;;;;6257228;28;20017;-65
2022/03/10 17:20:53;;;;;;;19.15;8.07;;;;;;;;;;6254984;28;20024;-65
2022/03/10 17:23:54;;;;;;;23.85;9.32;;;;;;;;;;6262056;28;20510;-65
2022/03/10 17:26:55;;;;;;;24.67;10.38;;;;;;;;;;6254051;28;20123;-65
2022/03/10 17:29:55;;;;;;;26.83;12.85;;;;;;;;;;6252650;28;20024;-65
2022/03/10 17:32:56;;;;;;;28.77;11.00;;;;;;;;;;6247831;28;20116;-65
2022/03/10 17:35:57;;;;;;;22.00;10.60;;;;;;;;;;6252994;28;20043;-66
2022/03/10 17:38:57;;;;;;;25.30;10.68;;;;;;;;;;6250231;28;20413;-69
2022/03/10 17:41:57;;;;;;;29.98;12.60;;;;;;;;;;6251077;28;20433;-66
2022/03/10 17:44:57;;;;;;;34.28;13.27;;;;;;;;;;6254071;28;20017;-66
2022/03/10 17:47:58;;;;;;;32.97;14.07;;;;;;;;;;6251887;28;20029;-66
2022/03/10 17:50:58;;;;;;;38.33;15.55;;;;;;;;;;6258193;28;20067;-67
2022/03/10 17:54:01;;;;;;;35.67;15.70;;;;;;;;;;6243376;28;20032;-67
2022/03/10 17:57:02;;;;;;;28.55;13.25;;;;;;;;;;6248469;28;20021;-66
2022/03/10 18:00:03;;;;;;;41.92;16.45;;;;;;;;;;6267142;28;20017;-66